Time;durP1;ratioP1;P1;durP2;ratioP2;P2;SDS_P1;SDS_P2;PMS_P1;PMS_P2;Temp;Humidity;BMP_temperature;BMP_pressure;BME280_temperature;BME280_humidity;BME280_pressure;Samples;Min_cycle;Max_cycle;Signal;HPM_P1;HPM_P2
2022/04/20 00:00:09;;;;;;;7.00;3.33;;;5.60;62.80;;;;;;4114589;28;20105;-84
2022/04/20 00:02:09;;;;;;;7.40;3.33;;;5.60;62.80;;;;;;4097401;28;20039;-85
2022/04/20 00:04:11;;;;;;;9.07;3.63;;;5.70;63.10;;;;;;4094370;28;20546;-85
2022/04/20 00:06:11;;;;;;;5.32;3.17;;;5.60;63.10;;;;;;4090227;28;20064;-85
2022/04/20 00:08:12;;;;;;;7.18;3.50;;;5.60;63.30;;;;;;4091636;28;20028;-86
2022/04/20 00:10:13;;;;;;;7.60;3.50;;;5.60;63.40;;;;;;4109085;28;20458;-85
2022/04/20 00:12:13;;;;;;;6.72;3.53;;;5.50;63.20;;;;;;4093134;28;20499;-85
2022/04/20 00:14:14;;;;;;;8.95;3.60;;;5.60;63.30;;;;;;4086186;28;20027;-85
2022/04/20 00:16:15;;;;;;;6.85;3.20;;;5.50;63.10;;;;;;4113699;28;20027;-85
2022/04/20 00:18:16;;;;;;;7.10;3.47;;;5.50;63.30;;;;;;4092562;28;20352;-85
2022/04/20 00:20:17;;;;;;;7.10;3.15;;;5.50;63.50;;;;;;4091990;28;20031;-85
2022/04/20 00:22:18;;;;;;;7.97;3.80;;;5.40;63.60;;;;;;4091024;28;20082;-85
2022/04/20 00:24:18;;;;;;;5.63;2.97;;;5.40;63.90;;;;;;4096211;28;20460;-85
2022/04/20 00:26:19;;;;;;;9.77;2.97;;;5.40;63.80;;;;;;4095545;28;20035;-84
2022/04/20 00:28:20;;;;;;;8.77;3.50;;;5.50;63.90;;;;;;4106693;28;20137;-85
2022/04/20 00:30:20;;;;;;;6.15;3.30;;;5.40;63.60;;;;;;4088034;28;20055;-84
2022/04/20 00:32:21;;;;;;;6.13;2.80;;;5.40;63.60;;;;;;4091776;28;20530;-85
2022/04/20 00:34:22;;;;;;;11.77;2.72;;;5.30;64.60;;;;;;4080374;28;20023;-85
2022/04/20 00:36:23;;;;;;;5.80;3.53;;;5.40;64.10;;;;;;4090634;28;20038;-85
2022/04/20 00:38:24;;;;;;;13.52;3.40;;;5.40;64.40;;;;;;4092544;28;20027;-84
2022/04/20 00:40:25;;;;;;;7.15;2.78;;;5.30;64.50;;;;;;4094212;28;20781;-84
2022/04/20 00:42:27;;;;;;;7.30;3.20;;;5.30;64.60;;;;;;4068896;29;20493;-85
2022/04/20 00:44:29;;;;;;;12.77;3.63;;;5.30;64.80;;;;;;4092774;28;20138;-85
2022/04/20 00:46:30;;;;;;;6.70;3.40;;;5.30;65.00;;;;;;4104254;28;20114;-85
2022/04/20 00:48:35;;;;;;;7.60;2.97;;;5.30;65.30;;;;;;4096436;28;20043;-84
2022/04/20 00:50:37;;;;;;;5.93;3.38;;;5.30;65.40;;;;;;4097775;28;20039;-85
2022/04/20 00:52:39;;;;;;;6.18;3.13;;;5.30;65.70;;;;;;4092588;28;20043;-85
2022/04/20 00:54:39;;;;;;;6.10;3.50;;;5.30;66.00;;;;;;4096571;28;20510;-85
2022/04/20 00:56:40;;;;;;;6.38;3.03;;;5.30;66.00;;;;;;4099544;28;20125;-85
2022/04/20 00:58:42;;;;;;;8.25;3.13;;;5.30;66.00;;;;;;4093089;28;20059;-85
2022/04/20 01:00:43;;;;;;;6.47;2.70;;;5.40;66.00;;;;;;4112785;28;20035;-85
2022/04/20 01:02:44;;;;;;;7.60;3.55;;;5.30;65.80;;;;;;4109236;28;20544;-84
2022/04/20 01:04:45;;;;;;;6.32;3.20;;;5.30;65.90;;;;;;4097323;28;20090;-85
2022/04/20 01:06:46;;;;;;;7.93;3.17;;;5.30;66.00;;;;;;4093312;28;20118;-84
2022/04/20 01:08:46;;;;;;;7.00;2.95;;;5.30;66.20;;;;;;4101335;28;20031;-84
2022/04/20 01:10:47;;;;;;;5.28;3.10;;;5.30;66.40;;;;;;4099268;28;20035;-85
2022/04/20 01:12:48;;;;;;;4.88;2.88;;;5.20;66.60;;;;;;4095517;28;20043;-84
2022/04/20 01:14:48;;;;;;;5.03;3.05;;;5.20;66.60;;;;;;4089132;28;20042;-85
2022/04/20 01:16:49;;;;;;;5.43;2.75;;;5.20;66.60;;;;;;4108825;28;20028;-85
2022/04/20 01:18:51;;;;;;;7.45;3.17;;;5.30;66.50;;;;;;4092764;28;20452;-85
2022/04/20 01:20:51;;;;;;;5.82;3.30;;;5.20;66.20;;;;;;4096404;28;20415;-85
2022/04/20 01:22:52;;;;;;;4.60;2.60;;;5.20;66.50;;;;;;4090992;28;20115;-85
2022/04/20 01:24:52;;;;;;;5.22;2.80;;;5.20;66.70;;;;;;4092559;28;20031;-84
2022/04/20 01:26:53;;;;;;;7.32;3.40;;;5.20;66.80;;;;;;4110149;28;20506;-85
2022/04/20 01:28:55;;;;;;;6.97;2.70;;;5.20;66.80;;;;;;4097104;28;20027;-85
2022/04/20 01:30:56;;;;;;;5.30;2.90;;;5.20;66.90;;;;;;4106422;28;20026;-85
2022/04/20 01:32:57;;;;;;;4.45;2.63;;;5.20;67.20;;;;;;4110941;28;20110;-85
2022/04/20 01:34:58;;;;;;;4.97;2.78;;;5.20;67.50;;;;;;4100073;28;20027;-85
2022/04/20 01:36:59;;;;;;;6.38;2.92;;;5.20;67.70;;;;;;4101577;28;20463;-85
2022/04/20 01:38:59;;;;;;;6.13;2.70;;;5.20;67.70;;;;;;4095220;28;20042;-85
2022/04/20 01:41:00;;;;;;;4.60;2.78;;;5.20;67.90;;;;;;4098065;28;20531;-85
2022/04/20 01:43:01;;;;;;;5.40;3.00;;;5.20;68.00;;;;;;4095678;28;20036;-85
2022/04/20 01:45:01;;;;;;;5.13;2.55;;;5.20;68.00;;;;;;4094861;28;20033;-85
2022/04/20 01:47:02;;;;;;;7.45;2.97;;;5.20;68.10;;;;;;4094731;28;20447;-84
2022/04/20 01:49:03;;;;;;;8.65;2.83;;;5.20;68.00;;;;;;4113014;28;20483;-85
2022/04/20 01:53:24;;;;;;;7.07;2.85;;;5.30;68.20;;;;;;4099768;28;20031;-85
2022/04/20 01:55:24;;;;;;;5.20;2.65;;;5.10;66.90;;;;;;4105154;28;20024;-85
2022/04/20 01:57:25;;;;;;;7.55;3.25;;;5.10;66.80;;;;;;4103212;28;20157;-85
2022/04/20 01:59:26;;;;;;;3.83;2.45;;;5.00;66.70;;;;;;4092760;28;20082;-86
2022/04/20 02:03:46;;;;;;;6.07;2.70;;;4.90;66.60;;;;;;4096258;28;20645;-85
2022/04/20 02:05:46;;;;;;;7.20;3.78;;;4.90;66.50;;;;;;4094242;28;20054;-85
2022/04/20 02:07:47;;;;;;;7.28;3.42;;;4.90;66.40;;;;;;4113859;28;20443;-85
2022/04/20 02:09:47;;;;;;;9.00;3.90;;;4.80;66.30;;;;;;4096259;28;20038;-85
2022/04/20 02:11:48;;;;;;;6.60;3.80;;;4.80;66.40;;;;;;4090478;28;20500;-85
2022/04/20 02:13:49;;;;;;;9.65;4.13;;;4.80;66.50;;;;;;4096166;28;20031;-84
2022/04/20 02:15:49;;;;;;;5.93;3.60;;;4.70;66.70;;;;;;4094306;28;20038;-85
2022/04/20 02:17:50;;;;;;;9.30;4.25;;;4.70;66.90;;;;;;4111022;28;20106;-84
2022/04/20 02:19:51;;;;;;;7.20;3.97;;;4.60;66.80;;;;;;4094724;28;20090;-84
2022/04/20 02:21:52;;;;;;;7.55;3.58;;;4.60;67.00;;;;;;4090013;28;20027;-84
2022/04/20 02:23:52;;;;;;;8.07;3.92;;;4.50;67.20;;;;;;4093399;28;20712;-84
2022/04/20 02:25:53;;;;;;;11.30;3.38;;;4.50;67.40;;;;;;4097963;28;20027;-84
2022/04/20 02:27:56;;;;;;;8.68;3.75;;;4.50;67.60;;;;;;4096967;28;20035;-84
2022/04/20 02:29:57;;;;;;;6.78;3.47;;;4.50;67.90;;;;;;4097266;28;20027;-84
2022/04/20 02:31:58;;;;;;;9.20;4.07;;;4.50;68.20;;;;;;4110446;28;20043;-84
2022/04/20 02:33:58;;;;;;;8.20;3.47;;;4.50;68.50;;;;;;4107214;28;20082;-85
2022/04/20 02:35:59;;;;;;;8.52;3.72;;;4.50;68.70;;;;;;4079592;29;20225;-84
2022/04/20 02:38:00;;;;;;;9.35;3.80;;;4.50;68.90;;;;;;4093654;28;20027;-84
2022/04/20 02:40:01;;;;;;;10.18;3.85;;;4.50;69.00;;;;;;4086434;28;20070;-85
2022/04/20 02:42:02;;;;;;;13.27;3.78;;;4.60;69.20;;;;;;4093978;28;20043;-85
2022/04/20 02:44:04;;;;;;;6.25;3.67;;;4.50;69.30;;;;;;4106272;28;20126;-85
2022/04/20 02:46:06;;;;;;;7.05;3.72;;;4.60;69.30;;;;;;4091467;28;20054;-85
2022/04/20 02:48:06;;;;;;;5.88;3.47;;;4.50;70.20;;;;;;4089968;28;20032;-84
2022/04/20 02:50:07;;;;;;;8.23;3.53;;;4.50;69.40;;;;;;4094461;28;20082;-85
2022/04/20 02:52:08;;;;;;;6.18;3.90;;;4.50;69.40;;;;;;4109158;28;20039;-84
2022/04/20 02:54:09;;;;;;;7.45;3.85;;;4.50;69.40;;;;;;4093494;28;20038;-85
2022/04/20 02:56:09;;;;;;;8.10;3.85;;;4.70;69.60;;;;;;4108896;28;20058;-85
2022/04/20 02:58:10;;;;;;;11.05;4.10;;;4.50;69.60;;;;;;4102215;28;20039;-85
2022/04/20 03:00:12;;;;;;;8.02;3.70;;;4.60;69.50;;;;;;4096563;28;20058;-84
2022/04/20 03:02:13;;;;;;;5.50;3.47;;;4.50;69.40;;;;;;4093882;28;20042;-84
2022/04/20 03:04:13;;;;;;;6.93;3.25;;;4.60;69.40;;;;;;4090485;28;20054;-84
2022/04/20 03:06:15;;;;;;;5.53;3.35;;;4.50;69.40;;;;;;4100070;28;20106;-84
2022/04/20 03:08:17;;;;;;;6.75;3.10;;;4.50;69.20;;;;;;4098580;28;20035;-84
2022/04/20 03:10:18;;;;;;;5.90;3.10;;;4.50;69.10;;;;;;4096298;28;20066;-84
2022/04/20 03:12:19;;;;;;;6.85;3.58;;;4.40;69.00;;;;;;4097779;28;20039;-85
2022/04/20 03:14:19;;;;;;;8.63;3.75;;;4.40;68.90;;;;;;4094388;28;20031;-84
2022/04/20 03:16:20;;;;;;;8.55;3.78;;;4.40;68.90;;;;;;4090749;28;20110;-85
2022/04/20 03:18:21;;;;;;;7.95;3.47;;;4.40;68.80;;;;;;4105574;28;20027;-84
2022/04/20 03:20:22;;;;;;;6.07;3.53;;;4.30;68.70;;;;;;4094967;28;20035;-85
2022/04/20 03:22:22;;;;;;;8.23;3.58;;;4.30;68.60;;;;;;4096285;28;20046;-85
2022/04/20 03:24:23;;;;;;;7.03;3.00;;;4.30;68.60;;;;;;4109609;28;20447;-84
2022/04/20 03:26:23;;;;;;;6.70;2.95;;;4.30;68.50;;;;;;4096154;28;20070;-85
2022/04/20 03:28:24;;;;;;;7.32;3.38;;;4.20;68.40;;;;;;4094566;28;20535;-84
2022/04/20 03:30:25;;;;;;;8.60;3.75;;;4.20;68.40;;;;;;4092360;28;20130;-84
2022/04/20 03:32:26;;;;;;;7.03;3.97;;;4.20;68.40;;;;;;4071784;29;20508;-84
2022/04/20 03:34:28;;;;;;;6.85;3.30;;;4.10;68.50;;;;;;4094262;28;20031;-85
2022/04/20 03:36:30;;;;;;;6.25;3.50;;;4.10;68.50;;;;;;4096232;28;20043;-85
2022/04/20 03:38:30;;;;;;;8.52;3.75;;;4.10;68.50;;;;;;4096891;28;20023;-85
2022/04/20 03:40:31;;;;;;;6.85;3.58;;;4.10;68.50;;;;;;4094003;28;20032;-85
2022/04/20 03:42:32;;;;;;;5.55;3.20;;;4.00;68.50;;;;;;4095875;28;20043;-85
2022/04/20 03:44:33;;;;;;;6.97;4.00;;;4.10;68.50;;;;;;4096257;28;20102;-85
2022/04/20 03:46:35;;;;;;;8.15;3.78;;;4.00;68.50;;;;;;4095535;28;20050;-85
2022/04/20 03:48:35;;;;;;;10.85;4.32;;;4.00;68.50;;;;;;4096636;28;20031;-86
2022/04/20 03:50:36;;;;;;;7.93;3.90;;;4.00;68.60;;;;;;4091520;28;20122;-85
2022/04/20 03:52:38;;;;;;;7.45;4.10;;;3.90;68.60;;;;;;4107565;28;20499;-85
2022/04/20 03:54:39;;;;;;;6.18;3.60;;;3.90;68.70;;;;;;4106801;28;20029;-84
2022/04/20 03:58:59;;;;;;;7.38;3.90;;;3.90;68.70;;;;;;4107418;28;20043;-83
2022/04/20 04:01:01;;;;;;;7.07;4.00;;;3.90;68.60;;;;;;4088718;28;20449;-84
2022/04/20 04:03:02;;;;;;;9.35;4.03;;;3.80;69.40;;;;;;4089601;28;20047;-84
2022/04/20 04:05:02;;;;;;;9.48;3.50;;;3.80;68.70;;;;;;4095896;28;20907;-85
2022/04/20 04:07:03;;;;;;;5.57;3.67;;;3.80;68.70;;;;;;4107319;28;20438;-83
2022/04/20 04:09:04;;;;;;;10.07;3.80;;;3.80;68.90;;;;;;4098497;28;20039;-84
2022/04/20 04:11:04;;;;;;;7.90;4.20;;;3.80;68.80;;;;;;4093120;28;20051;-84
2022/04/20 04:13:05;;;;;;;6.57;3.92;;;3.80;68.90;;;;;;4091974;28;20062;-84
2022/04/20 04:15:07;;;;;;;7.57;4.20;;;3.80;69.10;;;;;;4115775;28;20058;-83
2022/04/20 04:17:08;;;;;;;9.05;4.28;;;3.80;69.40;;;;;;4096714;28;20024;-84
2022/04/20 04:19:09;;;;;;;6.25;3.70;;;3.80;69.70;;;;;;4097791;28;20046;-84
2022/04/20 04:21:10;;;;;;;7.90;4.13;;;3.80;70.00;;;;;;4091548;28;20110;-84
2022/04/20 04:23:10;;;;;;;8.43;3.50;;;3.80;70.30;;;;;;4110377;28;20130;-86
2022/04/20 04:25:11;;;;;;;7.40;3.85;;;3.80;70.50;;;;;;4110497;28;20434;-84
2022/04/20 04:27:11;;;;;;;8.18;4.35;;;3.80;70.60;;;;;;4096437;28;20648;-84
2022/04/20 04:29:12;;;;;;;10.27;3.60;;;3.90;70.70;;;;;;4100757;28;20023;-84
2022/04/20 04:31:13;;;;;;;7.47;4.00;;;3.90;70.70;;;;;;4110627;28;20035;-84
2022/04/20 04:33:14;;;;;;;6.40;3.85;;;3.90;70.80;;;;;;4096816;28;20039;-84
2022/04/20 04:35:15;;;;;;;8.05;4.18;;;4.00;70.90;;;;;;4097696;28;20031;-84
2022/04/20 04:37:15;;;;;;;9.68;4.18;;;4.00;71.70;;;;;;4106276;28;20376;-84
2022/04/20 04:39:18;;;;;;;7.07;4.10;;;4.10;71.10;;;;;;4096649;28;20028;-84
2022/04/20 04:41:19;;;;;;;7.13;4.05;;;4.10;71.20;;;;;;4093432;28;20063;-85
2022/04/20 04:43:19;;;;;;;10.02;4.05;;;4.00;71.30;;;;;;4094942;28;20511;-84
2022/04/20 04:49:59;;;;;;;14.30;4.50;;;4.10;71.50;;;;;;4094561;28;20450;-84
2022/04/20 04:52:00;;;;;;;11.63;4.57;;;4.20;71.90;;;;;;4093204;28;20034;-84
2022/04/20 04:54:01;;;;;;;11.95;4.38;;;4.30;72.10;;;;;;4108585;28;20023;-83
2022/04/20 04:56:02;;;;;;;10.38;4.32;;;4.40;72.30;;;;;;4095971;28;20697;-85
2022/04/20 04:58:02;;;;;;;12.05;4.72;;;4.30;72.50;;;;;;4090115;28;20027;-84
2022/04/20 05:00:04;;;;;;;8.68;4.28;;;4.30;72.60;;;;;;4109159;28;20534;-84
2022/04/20 05:02:05;;;;;;;9.95;4.55;;;4.40;72.80;;;;;;4084993;28;20066;-86
2022/04/20 05:04:06;;;;;;;22.77;10.85;;;4.50;73.00;;;;;;4092340;28;20039;-85
2022/04/20 05:06:06;;;;;;;16.67;6.75;;;4.50;72.90;;;;;;4100200;28;20106;-88
2022/04/20 05:08:07;;;;;;;9.40;4.93;;;4.60;73.40;;;;;;4116914;28;20015;-86
2022/04/20 05:10:08;;;;;;;7.80;4.75;;;4.60;73.80;;;;;;4098549;28;20023;-85
2022/04/20 05:12:09;;;;;;;8.60;4.35;;;4.70;75.00;;;;;;4113076;28;20050;-86
2022/04/20 05:14:13;;;;;;;12.10;4.70;;;4.80;74.80;;;;;;4097440;28;20027;-86
2022/04/20 05:16:13;;;;;;;;;;;4.90;75.10;;;;;;4097642;29;20102;-86
2022/04/20 05:18:14;;;;;;;15.32;4.50;;;5.00;76.70;;;;;;4100026;29;20271;-86
2022/04/20 05:20:14;;;;;;;11.82;4.50;;;5.10;75.30;;;;;;4098573;29;20035;-85
2022/04/20 05:22:16;;;;;;;11.30;4.82;;;5.10;75.30;;;;;;4114515;28;20023;-87
2022/04/20 05:24:17;;;;;;;10.23;4.75;;;5.30;75.60;;;;;;4096361;28;20024;-86
2022/04/20 05:26:17;;;;;;;12.43;4.75;;;5.30;75.80;;;;;;4110311;28;20411;-87
2022/04/20 05:28:18;;;;;;;12.35;4.57;;;5.50;76.20;;;;;;4098516;28;20027;-86
2022/04/20 05:30:19;;;;;;;8.13;4.72;;;5.60;76.60;;;;;;4111937;28;20030;-86
2022/04/20 05:32:19;;;;;;;8.90;4.20;;;5.80;77.00;;;;;;4094347;28;20027;-85
2022/04/20 05:34:23;;;;;;;10.02;4.65;;;5.90;76.80;;;;;;4112936;28;20031;-88
2022/04/20 05:36:23;;;;;;;9.07;4.28;;;5.90;76.50;;;;;;4101805;29;20027;-86
2022/04/20 05:43:03;;;;;;;8.35;4.68;;;6.30;75.60;;;;;;4100175;28;20665;-85
2022/04/20 05:45:04;;;;;;;16.52;5.68;;;6.50;75.50;;;;;;4084078;29;20056;-87
2022/04/20 05:47:05;;;;;;;9.95;4.80;;;6.60;75.30;;;;;;4102844;29;20027;-85
2022/04/20 05:49:06;;;;;;;8.88;5.35;;;6.70;75.40;;;;;;4119309;28;20031;-85
2022/04/20 05:51:07;;;;;;;12.13;5.32;;;6.80;76.30;;;;;;4104456;28;20527;-88
2022/04/20 05:53:08;;;;;;;11.15;5.63;;;6.90;75.10;;;;;;4106887;28;20522;-86
2022/04/20 05:55:09;;;;;;;10.25;5.47;;;7.00;74.70;;;;;;4088521;28;20135;-86
2022/04/20 05:57:10;;;;;;;11.07;5.18;;;7.10;74.30;;;;;;4097958;28;20043;-86
2022/04/20 05:59:10;;;;;;;12.15;5.45;;;7.20;73.60;;;;;;4101235;29;20041;-86
2022/04/20 06:01:11;;;;;;;12.48;5.60;;;7.30;72.70;;;;;;4095167;29;20169;-86
2022/04/20 06:03:12;;;;;;;9.68;5.40;;;7.40;72.80;;;;;;4105411;28;20355;-89
2022/04/20 06:05:12;;;;;;;12.50;5.65;;;7.40;72.50;;;;;;4102673;28;20082;-86
2022/04/20 06:07:13;;;;;;;13.25;5.97;;;7.60;72.50;;;;;;4100243;28;20405;-86
2022/04/20 06:09:14;;;;;;;9.65;5.53;;;7.60;72.70;;;;;;4098636;29;20035;-85
2022/04/20 06:11:14;;;;;;;11.57;5.72;;;7.60;72.30;;;;;;4098686;29;20035;-89
2022/04/20 06:13:16;;;;;;;10.80;5.60;;;7.70;71.60;;;;;;4097389;28;20034;-86
2022/04/20 06:15:17;;;;;;;13.30;5.97;;;7.70;71.10;;;;;;4099199;28;20107;-85
2022/04/20 06:17:18;;;;;;;12.93;6.57;;;7.70;70.60;;;;;;4098325;28;20023;-85
2022/04/20 06:19:19;;;;;;;11.38;5.20;;;7.80;70.70;;;;;;4097285;28;20039;-88
2022/04/20 06:21:19;;;;;;;8.70;5.13;;;7.80;70.80;;;;;;4097176;29;20031;-87
2022/04/20 06:23:22;;;;;;;11.05;4.88;;;7.90;70.40;;;;;;4097542;28;20055;-85
2022/04/20 06:25:23;;;;;;;10.80;4.82;;;7.90;70.10;;;;;;4098675;28;20023;-85
2022/04/20 06:27:33;;;;;;;8.88;4.22;;;8.00;70.00;;;;;;4100048;28;20102;-86
2022/04/20 06:29:35;;;;;;;9.55;4.97;;;8.10;69.90;;;;;;4095664;28;20030;-88
2022/04/20 06:31:36;;;;;;;9.60;4.32;;;8.10;69.00;;;;;;4110946;28;20158;-87
2022/04/20 06:33:36;;;;;;;7.50;4.00;;;8.20;68.20;;;;;;4092070;29;20108;-86
2022/04/20 06:35:37;;;;;;;7.32;4.00;;;8.20;68.00;;;;;;4097218;29;20023;-86
2022/04/20 06:37:37;;;;;;;7.63;4.10;;;8.40;67.90;;;;;;4098285;29;20024;-86
2022/04/20 06:39:38;;;;;;;5.93;4.07;;;8.30;67.30;;;;;;4097928;28;20027;-88
2022/04/20 06:41:39;;;;;;;7.50;3.45;;;8.40;67.10;;;;;;4095141;28;20039;-86
2022/04/20 06:43:39;;;;;;;8.23;4.20;;;8.50;65.80;;;;;;4096342;29;20038;-85
2022/04/20 06:45:40;;;;;;;13.70;4.07;;;8.50;64.80;;;;;;4099510;28;20038;-86
2022/04/20 06:47:41;;;;;;;5.65;3.65;;;8.70;64.40;;;;;;4096196;29;20444;-88
2022/04/20 06:49:42;;;;;;;6.45;3.33;;;8.60;64.10;;;;;;4097028;28;20062;-86
2022/04/20 06:58:50;;;;;;;10.25;3.75;;;8.90;62.90;;;;;;4071198;29;20054;-85
2022/04/20 07:00:51;;;;;;;7.35;3.72;;;9.00;61.20;;;;;;4097224;28;20078;-85
2022/04/20 07:03:02;;;;;;;8.55;3.67;;;9.10;60.00;;;;;;4106153;28;20097;-86
2022/04/20 07:05:05;;;;;;;7.55;3.17;;;9.10;59.80;;;;;;4095024;28;20051;-86
2022/04/20 07:07:05;;;;;;;7.70;4.10;;;9.20;60.50;;;;;;4111714;28;20451;-86
2022/04/20 07:09:06;;;;;;;11.63;4.15;;;9.20;60.60;;;;;;4096378;28;20033;-87
2022/04/20 07:11:07;;;;;;;5.88;3.25;;;9.30;59.20;;;;;;4088146;28;20032;-86
2022/04/20 07:13:08;;;;;;;6.38;3.40;;;9.30;59.10;;;;;;4094557;28;20027;-86
2022/04/20 07:15:09;;;;;;;9.88;3.72;;;9.40;58.80;;;;;;4111272;28;20030;-86
2022/04/20 07:17:10;;;;;;;5.63;3.33;;;9.50;58.90;;;;;;4096597;28;20027;-86
2022/04/20 07:19:10;;;;;;;8.57;3.53;;;9.50;59.30;;;;;;4094601;28;20035;-88
2022/04/20 07:21:11;;;;;;;9.95;3.38;;;9.60;59.60;;;;;;4097060;28;20032;-86
2022/04/20 07:23:12;;;;;;;7.05;3.20;;;9.70;59.30;;;;;;4091717;28;20043;-85
2022/04/20 07:25:14;;;;;;;6.32;3.35;;;9.70;58.40;;;;;;4096661;28;20384;-89
2022/04/20 07:27:16;;;;;;;10.05;3.65;;;9.80;58.40;;;;;;4100808;28;20068;-88
2022/04/20 07:29:17;;;;;;;9.77;3.35;;;10.00;58.70;;;;;;4109482;28;20035;-86
2022/04/20 07:31:17;;;;;;;7.85;3.25;;;10.00;57.90;;;;;;4095341;28;20473;-86
2022/04/20 07:33:18;;;;;;;6.22;3.17;;;10.00;58.20;;;;;;4095706;28;20031;-86
2022/04/20 07:35:19;;;;;;;3.95;2.85;;;10.10;57.60;;;;;;4096583;29;20038;-86
2022/04/20 07:37:19;;;;;;;8.98;3.25;;;10.20;57.70;;;;;;4107503;28;20054;-86
2022/04/20 07:39:20;;;;;;;5.03;2.88;;;10.20;57.00;;;;;;4098542;28;20035;-87
2022/04/20 07:41:20;;;;;;;5.82;3.45;;;10.30;56.60;;;;;;4097913;28;20071;-87
2022/04/20 07:43:21;;;;;;;4.88;2.60;;;10.30;56.40;;;;;;4095019;28;20077;-86
2022/04/20 07:45:26;;;;;;;6.00;3.17;;;10.40;56.20;;;;;;4095322;28;20031;-85
2022/04/20 07:47:28;;;;;;;7.90;3.28;;;10.40;55.30;;;;;;4094858;28;20175;-87
2022/04/20 07:51:48;;;;;;;3.45;2.03;;;10.60;55.70;;;;;;4097134;28;20480;-87
2022/04/20 07:53:49;;;;;;;6.47;2.08;;;10.70;53.80;;;;;;4108156;28;20018;-87
2022/04/20 07:55:49;;;;;;;5.07;1.80;;;10.70;50.10;;;;;;4097375;28;20094;-86
2022/04/20 07:57:53;;;;;;;3.97;1.75;;;10.80;49.70;;;;;;4095919;28;20019;-86
2022/04/20 07:59:53;;;;;;;2.80;1.60;;;10.90;50.20;;;;;;4096056;28;20086;-87
2022/04/20 08:01:54;;;;;;;4.82;1.88;;;11.00;49.30;;;;;;4094200;28;20038;-87
2022/04/20 08:03:55;;;;;;;3.60;2.05;;;11.00;48.50;;;;;;4101722;29;20047;-88
2022/04/20 08:05:56;;;;;;;4.78;1.90;;;11.10;48.30;;;;;;4087769;28;20110;-86
2022/04/20 08:07:57;;;;;;;3.80;1.77;;;11.20;48.40;;;;;;4095327;29;20046;-86
2022/04/20 08:09:58;;;;;;;4.00;1.60;;;11.30;47.50;;;;;;4093777;29;20427;-88
2022/04/20 08:11:58;;;;;;;3.88;2.13;;;11.30;48.50;;;;;;4096241;28;20027;-87
2022/04/20 08:14:11;;;;;;;3.22;1.80;;;11.40;47.80;;;;;;4110373;28;20637;-86
2022/04/20 08:16:11;;;;;;;5.32;2.13;;;11.50;46.90;;;;;;4109197;28;20030;-86
2022/04/20 08:18:12;;;;;;;5.85;1.88;;;11.50;48.10;;;;;;4095784;28;20040;-89
2022/04/20 08:20:13;;;;;;;4.72;2.10;;;11.60;48.40;;;;;;4095260;28;20039;-87
2022/04/20 08:22:14;;;;;;;3.17;1.75;;;11.70;47.00;;;;;;4084811;28;20023;-87
2022/04/20 08:24:15;;;;;;;4.70;1.77;;;11.80;48.00;;;;;;4095211;28;20112;-87
2022/04/20 08:26:15;;;;;;;5.47;2.17;;;11.80;48.40;;;;;;4096374;28;20038;-86
2022/04/20 08:28:16;;;;;;;3.95;1.75;;;11.90;47.30;;;;;;4099269;28;20039;-87
2022/04/20 08:30:17;;;;;;;4.57;1.98;;;12.10;47.50;;;;;;4096611;28;20038;-89
2022/04/20 08:32:18;;;;;;;2.90;1.63;;;12.10;46.60;;;;;;4094204;28;20502;-86
2022/04/20 08:34:19;;;;;;;2.67;1.40;;;12.10;46.00;;;;;;4095004;28;20035;-89
2022/04/20 08:36:20;;;;;;;6.60;1.58;;;12.10;44.40;;;;;;4096393;28;20463;-89
2022/04/20 08:38:20;;;;;;;2.83;1.58;;;12.10;44.40;;;;;;4100642;28;20107;-87
2022/04/20 08:40:21;;;;;;;4.50;1.60;;;12.20;45.10;;;;;;4096759;28;20444;-87
2022/04/20 08:42:25;;;;;;;2.47;1.50;;;12.20;44.00;;;;;;4085893;29;20179;-87
2022/04/20 08:44:27;;;;;;;5.25;1.70;;;12.30;43.40;;;;;;4089814;28;20428;-90
2022/04/20 08:46:33;;;;;;;7.00;1.77;;;12.30;44.00;;;;;;4108479;28;20111;-88
2022/04/20 08:48:35;;;;;;;2.67;1.60;;;12.30;43.40;;;;;;4094942;28;20518;-87
2022/04/20 08:50:36;;;;;;;3.05;1.75;;;12.30;43.60;;;;;;4097631;28;20061;-86
2022/04/20 08:52:37;;;;;;;3.75;1.45;;;12.40;43.60;;;;;;4095007;28;20035;-87
2022/04/20 08:54:38;;;;;;;5.28;1.80;;;12.40;44.40;;;;;;4096012;29;20035;-87
2022/04/20 08:59:02;;;;;;;9.32;2.13;;;12.50;44.60;;;;;;4095935;28;20567;-86
2022/04/20 09:01:04;;;;;;;7.05;1.83;;;12.60;44.90;;;;;;4096919;28;20039;-87
2022/04/20 09:03:05;;;;;;;2.85;1.65;;;12.60;44.70;;;;;;4096267;28;20019;-88
2022/04/20 09:05:06;;;;;;;6.05;2.20;;;12.70;44.20;;;;;;4096144;28;20128;-86
2022/04/20 09:07:11;;;;;;;4.25;1.95;;;12.70;44.50;;;;;;4113911;28;20038;-87
2022/04/20 09:09:13;;;;;;;4.43;2.03;;;12.80;45.00;;;;;;4110550;28;20031;-87
2022/04/20 09:11:14;;;;;;;2.97;1.90;;;12.80;44.90;;;;;;4094861;29;20123;-87
2022/04/20 09:13:15;;;;;;;4.93;2.20;;;12.90;44.40;;;;;;4089055;28;20038;-87
2022/04/20 09:15:29;;;;;;;3.25;1.92;;;13.00;44.80;;;;;;4112741;28;20037;-86
2022/04/20 09:17:32;;;;;;;4.65;2.60;;;13.00;45.00;;;;;;4110678;28;20046;-88
2022/04/20 09:19:33;;;;;;;3.67;2.25;;;13.10;43.50;;;;;;4085120;29;20027;-87
2022/04/20 09:21:36;;;;;;;4.50;1.80;;;13.20;44.10;;;;;;4098354;28;20977;-87
2022/04/20 09:23:37;;;;;;;;;;;13.20;45.20;;;;;;4092920;28;20131;-86
2022/04/20 09:25:41;;;;;;;4.82;1.98;;;13.30;44.70;;;;;;4090222;28;19917;-89
2022/04/20 09:27:42;;;;;;;;;;;13.40;44.90;;;;;;4095443;28;20027;-87
2022/04/20 09:29:55;;;;;;;5.00;2.20;;;13.50;44.60;;;;;;4106537;28;19914;-89
2022/04/20 09:31:56;;;;;;;10.65;2.45;;;13.50;43.60;;;;;;4099014;28;20338;-87
2022/04/20 09:33:56;;;;;;;5.72;2.00;;;13.60;43.60;;;;;;4097938;29;20038;-87
2022/04/20 09:35:57;;;;;;;5.03;2.03;;;13.60;43.50;;;;;;4098995;28;20024;-87
2022/04/20 09:38:05;;;;;;;6.63;2.20;;;13.70;44.00;;;;;;4106725;28;20027;-87
2022/04/20 09:40:13;;;;;;;6.80;2.13;;;13.70;44.40;;;;;;4097776;28;20035;-87
2022/04/20 09:42:14;;;;;;;4.60;2.30;;;13.70;43.50;;;;;;4091770;28;20065;-87
2022/04/20 09:44:17;;;;;;;5.90;2.38;;;13.80;42.40;;;;;;4096936;28;20041;-88
2022/04/20 09:48:52;;;;;;;4.20;1.92;;;13.80;42.80;;;;;;4085717;28;20791;-84
2022/04/20 09:50:53;;;;;;;3.92;2.53;;;13.90;43.40;;;;;;4096221;28;20035;-85
2022/04/20 09:52:55;;;;;;;4.28;2.45;;;14.00;43.80;;;;;;4097924;28;20503;-85
2022/04/20 09:54:57;;;;;;;6.03;2.83;;;14.00;43.50;;;;;;4100974;28;20055;-85
2022/04/20 09:57:11;;;;;;;5.25;2.65;;;14.10;43.50;;;;;;4098521;28;20034;-84
2022/04/20 09:59:12;;;;;;;5.90;2.63;;;14.10;43.80;;;;;;4099088;29;20030;-85
2022/04/20 10:01:30;;;;;;;8.43;2.90;;;14.20;43.10;;;;;;4112312;28;20034;-85
2022/04/20 10:03:31;;;;;;;4.60;2.53;;;14.20;42.60;;;;;;4097579;28;20035;-86
2022/04/20 10:05:32;;;;;;;5.80;2.50;;;14.20;42.90;;;;;;4098207;28;20023;-85
2022/04/20 10:07:34;;;;;;;7.28;2.30;;;14.30;43.20;;;;;;4095870;29;20054;-85
2022/04/20 10:09:35;;;;;;;6.70;3.10;;;14.40;44.00;;;;;;4088163;28;20042;-85
2022/04/20 10:11:37;;;;;;;6.22;2.83;;;14.40;43.20;;;;;;4104442;28;20679;-86
2022/04/20 10:13:39;;;;;;;7.45;2.78;;;14.50;42.60;;;;;;4093132;28;20027;-84
2022/04/20 10:18:01;;;;;;;5.53;2.67;;;14.60;42.40;;;;;;4100604;28;20031;-85
2022/04/20 10:20:04;;;;;;;7.22;3.28;;;14.70;41.60;;;;;;4105565;28;20046;-85
2022/04/20 10:22:05;;;;;;;;;;;14.70;41.60;;;;;;4101862;28;20492;-85
2022/04/20 10:24:09;;;;;;;6.63;3.00;;;14.80;41.30;;;;;;4101896;28;19922;-85
2022/04/20 10:26:11;;;;;;;7.40;3.08;;;14.80;41.00;;;;;;4100091;28;20095;-85
2022/04/20 10:28:23;;;;;;;9.07;2.95;;;14.80;40.80;;;;;;4097052;28;20118;-86
2022/04/20 10:30:58;;;;;;;6.63;3.05;;;14.80;40.50;;;;;;4088116;28;20042;-86
2022/04/20 10:33:19;;;;;;;6.68;2.80;;;14.90;40.20;;;;;;4095352;28;20050;-86
2022/04/20 10:35:21;;;;;;;8.43;3.47;;;14.90;39.90;;;;;;4091883;28;20039;-85
2022/04/20 10:37:25;;;;;;;9.15;3.75;;;15.00;40.20;;;;;;4105352;28;20037;-85
2022/04/20 10:39:33;;;;;;;10.48;3.28;;;14.90;39.80;;;;;;4113413;28;20065;-85
2022/04/20 10:41:33;;;;;;;8.93;3.67;;;14.90;39.80;;;;;;4096046;28;20028;-85
2022/04/20 10:43:38;;;;;;;6.38;3.05;;;15.00;39.50;;;;;;4096657;28;20110;-84
2022/04/20 10:46:11;;;;;;;10.27;4.22;;;15.00;39.30;;;;;;4096360;28;20479;-86
2022/04/20 10:48:14;;;;;;;6.78;3.40;;;15.00;38.00;;;;;;4096883;28;20520;-85
2022/04/20 10:50:28;;;;;;;14.77;5.47;;;15.00;39.00;;;;;;4095345;28;20513;-85
2022/04/20 10:52:37;;;;;;;12.30;3.97;;;15.00;39.00;;;;;;4097571;28;20122;-85
2022/04/20 10:54:52;;;;;;;10.05;4.18;;;15.00;38.90;;;;;;4113870;28;20077;-87
2022/04/20 10:57:02;;;;;;;9.77;3.85;;;15.10;38.90;;;;;;4097994;28;20031;-85
2022/04/20 10:59:05;;;;;;;11.43;4.45;;;15.10;38.80;;;;;;4100530;28;20134;-85
2022/04/20 11:01:09;;;;;;;;;;;15.10;39.30;;;;;;4099568;28;20034;-86
2022/04/20 11:03:12;;;;;;;9.98;4.65;;;15.10;38.00;;;;;;4113388;28;19917;-87
2022/04/20 11:05:14;;;;;;;11.05;5.07;;;15.20;37.60;;;;;;4096884;28;20045;-87
2022/04/20 11:07:15;;;;;;;14.45;5.55;;;15.20;37.70;;;;;;4098963;28;20038;-86
2022/04/20 11:09:41;;;;;;;11.50;4.93;;;15.20;38.00;;;;;;4109452;28;20031;-85
2022/04/20 11:19:33;;;;;;;13.35;4.78;;;15.30;38.20;;;;;;4100190;28;20112;-85